Time;durP1;ratioP1;P1;durP2;ratioP2;P2;SDS_P1;SDS_P2;PMS_P1;PMS_P2;Temp;Humidity;BMP_temperature;BMP_pressure;BME280_temperature;BME280_humidity;BME280_pressure;Samples;Min_cycle;Max_cycle;Signal;HPM_P1;HPM_P2
2022/04/30 00:02:16;;;;;;;5.97;3.70;;;;;;;;;;5049329;28;20040;-85
2022/04/30 00:04:43;;;;;;;8.63;4.38;;;;;;;;;;5045655;28;20017;-85
2022/04/30 00:07:10;;;;;;;5.63;3.90;;;;;;;;;;5042089;28;20033;-85
2022/04/30 00:09:36;;;;;;;7.05;4.57;;;;;;;;;;5050265;28;20048;-86
2022/04/30 00:12:02;;;;;;;5.25;3.40;;;;;;;;;;5043953;28;20033;-85
2022/04/30 00:14:29;;;;;;;5.95;3.92;;;;;;;;;;5043897;28;20037;-84
2022/04/30 00:16:55;;;;;;;10.38;4.18;;;;;;;;;;5045573;28;20064;-84
2022/04/30 00:19:22;;;;;;;6.82;3.75;;;;;;;;;;5053423;28;20168;-85
2022/04/30 00:21:49;;;;;;;5.82;3.30;;;;;;;;;;5053327;28;20055;-84
2022/04/30 00:24:15;;;;;;;7.15;3.97;;;;;;;;;;5049401;28;20064;-85
2022/04/30 00:26:41;;;;;;;6.95;3.88;;;;;;;;;;5050462;28;20025;-85
2022/04/30 00:29:10;;;;;;;5.80;3.35;;;;;;;;;;5049787;28;20774;-84
2022/04/30 00:31:36;;;;;;;8.48;3.75;;;;;;;;;;5049095;28;20029;-83
2022/04/30 00:34:03;;;;;;;5.70;3.28;;;;;;;;;;5053761;28;20025;-84
2022/04/30 00:36:29;;;;;;;5.75;3.78;;;;;;;;;;5049717;28;20033;-85
2022/04/30 00:38:55;;;;;;;6.80;3.38;;;;;;;;;;5046640;28;20050;-83
2022/04/30 00:41:23;;;;;;;5.50;3.20;;;;;;;;;;5044006;28;20029;-85
2022/04/30 00:43:50;;;;;;;6.20;3.67;;;;;;;;;;5044355;28;20036;-85
2022/04/30 00:46:20;;;;;;;5.88;3.25;;;9.90;99.90;;;;;;5034545;28;20053;-86
2022/04/30 00:48:46;;;;;;;5.72;3.88;;;;;;;;;;5047904;28;20025;-83
2022/04/30 00:51:13;;;;;;;6.70;3.58;;;;;;;;;;5042558;28;20031;-84
2022/04/30 00:53:40;;;;;;;6.70;4.10;;;;;;;;;;5053537;28;20029;-84
2022/04/30 00:56:07;;;;;;;8.82;3.70;;;;;;;;;;5049642;28;20037;-85
2022/04/30 00:58:34;;;;;;;7.40;3.95;;;;;;;;;;5045151;28;20384;-85
2022/04/30 01:01:02;;;;;;;7.47;3.97;;;;;;;;;;5045480;28;20029;-83
2022/04/30 01:03:29;;;;;;;7.25;3.47;;;;;;;;;;5047854;28;20075;-85
2022/04/30 01:05:55;;;;;;;5.43;2.80;;;;;;;;;;5047803;28;20061;-84
2022/04/30 01:08:22;;;;;;;7.25;3.72;;;;;;;;;;5049799;28;20041;-84
2022/04/30 01:10:48;;;;;;;7.90;3.75;;;;;;;;;;5050391;28;20025;-84
2022/04/30 01:13:14;;;;;;;6.47;3.72;;;;;;;;;;5051679;28;20048;-84
2022/04/30 01:15:41;;;;;;;5.45;3.70;;;;;;;;;;5046520;28;20152;-84
2022/04/30 01:18:10;;;;;;;6.25;3.15;;;;;;;;;;5042379;28;20068;-84
2022/04/30 01:20:38;;;;;;;4.30;2.88;;;;;;;;;;5044463;28;20033;-84
2022/04/30 01:23:04;;;;;;;4.68;2.92;;;9.80;99.90;;;;;;5042859;28;20056;-85
2022/04/30 01:25:31;;;;;;;6.80;3.35;;;;;;;;;;5047080;28;20056;-87
2022/04/30 01:27:58;;;;;;;6.25;3.53;;;;;;;;;;5036942;28;20033;-83
2022/04/30 01:30:24;;;;;;;5.72;3.08;;;;;;;;;;5044024;28;20074;-86
2022/04/30 01:38:20;;;;;;;5.03;3.33;;;;;;;;;;5047123;28;20053;-87
2022/04/30 01:40:47;;;;;;;5.95;3.42;;;;;;;;;;5056660;28;20029;-84
2022/04/30 01:43:13;;;;;;;5.85;2.75;;;;;;;;;;5044118;28;20051;-84
2022/04/30 01:45:39;;;;;;;8.27;2.90;;;;;;;;;;5041199;28;20047;-84
2022/04/30 01:48:06;;;;;;;6.13;2.50;;;;;;;;;;5041765;28;20085;-85
2022/04/30 01:50:34;;;;;;;5.95;3.60;;;;;;;;;;5050916;28;20532;-85
2022/04/30 01:53:00;;;;;;;4.63;2.97;;;;;;;;;;5050364;28;20037;-84
2022/04/30 01:55:26;;;;;;;6.85;3.78;;;;;;;;;;5049106;28;20025;-84
2022/04/30 01:57:52;;;;;;;6.30;3.97;;;;;;;;;;5046558;28;20037;-85
2022/04/30 02:00:20;;;;;;;6.40;3.45;;;;;;;;;;5052876;28;20025;-85
2022/04/30 02:02:46;;;;;;;7.97;5.75;;;;;;;;;;5054291;28;20040;-85
2022/04/30 02:05:16;;;;;;;8.38;4.40;;;;;;;;;;5053748;28;20036;-85
2022/04/30 02:07:58;;;;;;;8.73;5.18;;;;;;;;;;5049072;28;20040;-84
2022/04/30 02:10:24;;;;;;;9.65;4.85;;;;;;;;;;5055818;28;20055;-85
2022/04/30 02:12:54;;;;;;;8.70;4.22;;;;;;;;;;5047562;28;20017;-85
2022/04/30 02:15:20;;;;;;;7.45;3.65;;;;;;;;;;5050766;28;20081;-84
2022/04/30 02:17:46;;;;;;;8.68;4.38;;;;;;;;;;5049586;28;20079;-85
2022/04/30 02:20:19;;;;;;;6.15;3.30;;;;;;;;;;5050460;28;20021;-82
2022/04/30 02:22:48;;;;;;;9.93;3.83;;;;;;;;;;5046058;28;20587;-82
2022/04/30 02:25:15;;;;;;;7.47;4.20;;;8.80;99.90;;;;;;5050060;28;20319;-86
2022/04/30 02:27:42;;;;;;;7.68;4.28;;;;;;;;;;5033476;28;20037;-83
2022/04/30 02:30:11;;;;;;;5.90;3.60;;;;;;;;;;5034512;28;20045;-85
2022/04/30 02:32:45;;;;;;;4.72;2.97;;;;;;;;;;5048693;28;20037;-85
2022/04/30 02:35:14;;;;;;;8.40;4.05;;;;;;;;;;5046017;28;20108;-84
2022/04/30 02:37:40;;;;;;;5.85;3.40;;;;;;;;;;5042032;28;20045;-85
2022/04/30 02:40:06;;;;;;;7.63;3.80;;;9.20;99.90;;;;;;5046549;28;20055;-85
2022/04/30 02:42:32;;;;;;;6.43;3.72;;;;;;;;;;5045842;28;20026;-84
2022/04/30 02:44:59;;;;;;;6.25;3.78;;;;;;;;;;5040194;28;21222;-85
2022/04/30 02:47:25;;;;;;;9.90;3.75;;;;;;;;;;5044040;28;20052;-85
2022/04/30 02:49:53;;;;;;;8.20;4.07;;;;;;;;;;5046893;28;20025;-83
2022/04/30 02:52:20;;;;;;;6.13;3.90;;;;;;;;;;5045690;28;20480;-83
2022/04/30 02:54:46;;;;;;;5.22;3.55;;;;;;;;;;5046502;28;20817;-85
2022/04/30 02:57:12;;;;;;;6.63;3.90;;;;;;;;;;5047550;28;20068;-86
2022/04/30 02:59:54;;;;;;;8.88;3.83;;;;;;;;;;5046039;28;20067;-86
2022/04/30 03:02:20;;;;;;;5.32;3.85;;;;;;;;;;5034832;28;20071;-85
2022/04/30 03:04:48;;;;;;;7.65;3.42;;;;;;;;;;5045114;28;20032;-84
2022/04/30 03:07:14;;;;;;;8.57;4.05;;;;;;;;;;5048610;28;20033;-85
2022/04/30 03:09:40;;;;;;;7.35;4.45;;;;;;;;;;5042167;28;20493;-85
2022/04/30 03:12:08;;;;;;;8.20;4.38;;;;;;;;;;5048118;28;20621;-84
2022/04/30 03:14:35;;;;;;;6.75;3.97;;;;;;;;;;5040582;28;20025;-86
2022/04/30 03:22:30;;;;;;;8.20;3.97;;;;;;;;;;5044092;28;20039;-85
2022/04/30 03:24:56;;;;;;;11.02;4.13;;;;;;;;;;5045200;28;20021;-85
2022/04/30 03:27:22;;;;;;;7.38;4.20;;;;;;;;;;5043734;28;20033;-85
2022/04/30 03:29:48;;;;;;;8.77;3.85;;;;;;;;;;5043645;28;20079;-85
2022/04/30 03:32:14;;;;;;;5.93;3.25;;;;;;;;;;5040206;28;20041;-84
2022/04/30 03:34:40;;;;;;;5.55;3.15;;;;;;;;;;5048865;28;20033;-84
2022/04/30 03:37:06;;;;;;;10.48;4.05;;;;;;;;;;5048394;28;20125;-84
2022/04/30 03:39:32;;;;;;;7.07;3.88;;;;;;;;;;5049246;28;20030;-84
2022/04/30 03:41:58;;;;;;;6.47;3.78;;;;;;;;;;5055779;28;20021;-85
2022/04/30 03:44:25;;;;;;;9.18;4.00;;;;;;;;;;5053034;28;20036;-86
2022/04/30 03:46:51;;;;;;;6.22;3.00;;;;;;;;;;5054344;28;20473;-84
2022/04/30 03:49:17;;;;;;;6.65;3.47;;;;;;;;;;5050752;28;20036;-85
2022/04/30 03:51:43;;;;;;;6.85;4.20;;;;;;;;;;5050659;28;20564;-84
2022/04/30 03:54:09;;;;;;;5.75;3.72;;;;;;;;;;5046522;28;20041;-84
2022/04/30 03:56:36;;;;;;;7.60;3.90;;;;;;;;;;5049253;28;20040;-85
2022/04/30 03:59:02;;;;;;;7.50;3.75;;;;;;;;;;5052059;28;20032;-84
2022/04/30 04:01:28;;;;;;;7.53;4.40;;;;;;;;;;5045262;28;20020;-84
2022/04/30 04:03:54;;;;;;;6.32;4.00;;;;;;;;;;5049668;28;20112;-87
2022/04/30 04:06:20;;;;;;;8.13;4.15;;;;;;;;;;5053980;28;20033;-84
2022/04/30 04:08:51;;;;;;;7.85;4.30;;;;;;;;;;5050194;28;20063;-84
2022/04/30 04:11:17;;;;;;;10.57;5.15;;;;;;;;;;5045071;28;20025;-85
2022/04/30 04:19:13;;;;;;;6.15;3.28;;;;;;;;;;5046001;28;20048;-86
2022/04/30 04:21:40;;;;;;;6.35;4.30;;;;;;;;;;5045848;28;20053;-84
2022/04/30 04:26:51;;;;;;;8.13;4.72;;;;;;;;;;5046129;28;20098;-84
2022/04/30 04:29:17;;;;;;;7.35;4.55;;;;;;;;;;5048561;28;20024;-83
2022/04/30 04:31:46;;;;;;;6.13;4.13;;;;;;;;;;5041837;28;20036;-85
2022/04/30 04:34:12;;;;;;;9.18;4.07;;;;;;;;;;5051145;28;20044;-86
2022/04/30 04:36:38;;;;;;;9.13;5.10;;;;;;;;;;5041450;28;20041;-85
2022/04/30 04:39:09;;;;;;;7.10;4.47;;;;;;;;;;5052582;28;20053;-84
2022/04/30 04:41:35;;;;;;;9.80;5.10;;;;;;;;;;5046269;28;20029;-85
2022/04/30 04:44:02;;;;;;;12.63;5.32;;;;;;;;;;5052401;28;20100;-85
2022/04/30 04:46:28;;;;;;;10.35;4.57;;;;;;;;;;5046393;28;20056;-83
2022/04/30 04:48:54;;;;;;;7.93;4.60;;;;;;;;;;5046263;28;20504;-83
2022/04/30 04:51:21;;;;;;;6.38;4.18;;;;;;;;;;5044479;28;20044;-85
2022/04/30 04:53:47;;;;;;;8.65;4.28;;;;;;;;;;5044139;28;20029;-83
2022/04/30 04:56:13;;;;;;;9.93;4.60;;;;;;;;;;5045012;28;20064;-82
2022/04/30 04:58:40;;;;;;;13.80;5.55;;;;;;;;;;5046876;28;20477;-84
2022/04/30 05:01:06;;;;;;;10.55;5.75;;;;;;;;;;5048669;28;20028;-85
2022/04/30 05:03:32;;;;;;;12.60;6.03;;;;;;;;;;5042323;28;20075;-83
2022/04/30 05:05:58;;;;;;;10.00;5.20;;;;;;;;;;5048934;28;20569;-84
2022/04/30 05:08:24;;;;;;;10.23;4.68;;;;;;;;;;5045042;28;20043;-83
2022/04/30 05:10:50;;;;;;;15.32;7.82;;;;;;;;;;5045833;28;20098;-84
2022/04/30 05:13:16;;;;;;;9.77;6.07;;;;;;;;;;5043810;28;20037;-84
2022/04/30 05:15:43;;;;;;;14.07;5.53;;;;;;;;;;5039239;28;20455;-83
2022/04/30 05:18:09;;;;;;;11.65;5.50;;;;;;;;;;5043439;28;20571;-82
2022/04/30 05:20:35;;;;;;;13.57;6.75;;;;;;;;;;5041887;28;20083;-84
2022/04/30 05:23:01;;;;;;;10.77;7.07;;;;;;;;;;5040400;28;20063;-83
2022/04/30 05:25:27;;;;;;;12.57;6.07;;;;;;;;;;5045335;28;20053;-83
2022/04/30 05:27:52;;;;;;;9.27;5.85;;;;;;;;;;5043217;28;20037;-84
2022/04/30 05:30:19;;;;;;;8.35;5.25;;;;;;;;;;5042667;28;20032;-82
2022/04/30 05:32:44;;;;;;;7.35;5.20;;;;;;;;;;5041068;28;20033;-83
2022/04/30 05:35:11;;;;;;;7.53;4.85;;;;;;;;;;5041407;28;20534;-83
2022/04/30 05:37:37;;;;;;;8.98;5.18;;;;;;;;;;5042950;28;20554;-84
2022/04/30 05:40:03;;;;;;;9.88;5.25;;;;;;;;;;5048943;28;20525;-83
2022/04/30 05:42:29;;;;;;;9.77;6.00;;;;;;;;;;5040374;28;20037;-83
2022/04/30 05:44:55;;;;;;;8.07;4.97;;;;;;;;;;5047979;28;20036;-85
2022/04/30 05:47:21;;;;;;;7.72;4.43;;;;;;;;;;5040364;28;20055;-85
2022/04/30 05:49:47;;;;;;;8.50;4.85;;;;;;;;;;5039764;28;20135;-86
2022/04/30 05:52:13;;;;;;;7.30;4.28;;;;;;;;;;5041678;28;20413;-83
2022/04/30 05:54:39;;;;;;;8.15;4.30;;;;;;;;;;5041745;28;20040;-84
2022/04/30 05:57:05;;;;;;;6.88;3.65;;;;;;;;;;5035029;28;20490;-84
2022/04/30 05:59:31;;;;;;;10.77;4.30;;;;;;;;;;5035542;28;20020;-86
2022/04/30 06:01:57;;;;;;;7.07;4.47;;;;;;;;;;5040098;28;20119;-85
2022/04/30 06:04:23;;;;;;;10.43;4.45;;;;;;;;;;5041520;28;20029;-84
2022/04/30 06:06:49;;;;;;;13.18;4.47;;;;;;;;;;5035997;28;20033;-86
2022/04/30 06:09:15;;;;;;;8.68;4.32;;;;;;;;;;5041497;28;20039;-85
2022/04/30 06:11:41;;;;;;;9.25;4.93;;;;;;;;;;5038745;28;20484;-85
2022/04/30 06:14:07;;;;;;;7.15;3.97;;;;;;;;;;5033385;28;20611;-88
2022/04/30 06:16:33;;;;;;;7.15;4.32;;;;;;;;;;5041558;28;20044;-86
2022/04/30 06:18:59;;;;;;;5.50;3.45;;;;;;;;;;5039547;28;20105;-85
2022/04/30 06:21:25;;;;;;;7.10;3.67;;;;;;;;;;5036766;28;20043;-83
2022/04/30 06:23:51;;;;;;;9.55;4.35;;;;;;;;;;5035805;28;20053;-84
2022/04/30 06:26:17;;;;;;;7.35;3.45;;;;;;;;;;5046404;28;20032;-84
2022/04/30 06:28:43;;;;;;;8.00;4.30;;;;;;;;;;5044077;28;20033;-85
2022/04/30 06:31:09;;;;;;;6.38;3.78;;;;;;;;;;5053851;28;20381;-87
2022/04/30 06:33:35;;;;;;;7.57;4.45;;;;;;;;;;5045742;28;20017;-85
2022/04/30 06:36:01;;;;;;;8.88;4.20;;;;;;;;;;5051486;28;20386;-85
2022/04/30 06:38:27;;;;;;;7.40;3.90;;;;;;;;;;5050181;28;20043;-85
2022/04/30 06:40:53;;;;;;;9.23;4.10;;;;;;;;;;5055931;28;20508;-85
2022/04/30 06:43:21;;;;;;;7.82;4.15;;;;;;;;;;5048515;28;20021;-85
2022/04/30 06:45:47;;;;;;;6.30;3.90;;;;;;;;;;5046156;28;20036;-84
2022/04/30 06:48:13;;;;;;;7.50;3.97;;;;;;;;;;5051385;28;20028;-85
2022/04/30 06:50:39;;;;;;;7.82;4.13;;;;;;;;;;5051334;28;20036;-85
2022/04/30 06:58:43;;;;;;;5.20;3.15;;;;;;;;;;5055000;28;20520;-86
2022/04/30 07:01:29;;;;;;;8.93;3.85;;;;;;;;;;5051334;28;20071;-86
2022/04/30 07:04:01;;;;;;;10.82;4.82;;;;;;;;;;5056524;28;20025;-83
2022/04/30 07:06:29;;;;;;;11.05;6.00;;;;;;;;;;5056764;28;20037;-84
2022/04/30 07:08:55;;;;;;;8.65;4.50;;;;;;;;;;5050925;28;20033;-84
2022/04/30 07:11:21;;;;;;;8.68;3.40;;;;;;;;;;5051832;28;20032;-83
2022/04/30 07:13:47;;;;;;;10.35;4.38;;;;;;;;;;5053660;28;20021;-83
2022/04/30 07:16:13;;;;;;;11.75;4.55;;;;;;;;;;5052879;28;20024;-82
2022/04/30 07:18:39;;;;;;;10.05;3.65;;;;;;;;;;5051085;28;20041;-84
2022/04/30 07:21:05;;;;;;;11.60;4.03;;;;;;;;;;5054396;28;20032;-82
2022/04/30 07:23:32;;;;;;;7.70;4.05;;;;;;;;;;5044959;28;20033;-83
2022/04/30 07:25:58;;;;;;;8.43;4.80;;;;;;;;;;5050962;28;20029;-84
2022/04/30 07:28:24;;;;;;;9.57;4.00;;;;;;;;;;5046743;28;20102;-82
2022/04/30 07:30:53;;;;;;;7.68;4.82;;;;;;;;;;5043044;28;20554;-82
2022/04/30 07:33:19;;;;;;;5.82;3.53;;;;;;;;;;5042661;28;20037;-82
2022/04/30 07:35:45;;;;;;;11.35;4.85;;;;;;;;;;5058751;28;20020;-83
2022/04/30 07:38:11;;;;;;;8.95;4.03;;;;;;;;;;5049070;28;20124;-83
2022/04/30 07:40:38;;;;;;;8.82;4.30;;;;;;;;;;5054050;28;20071;-82
2022/04/30 07:43:04;;;;;;;6.05;3.45;;;;;;;;;;5052084;28;20063;-82
2022/04/30 07:45:30;;;;;;;9.32;3.50;;;;;;;;;;5048591;28;20440;-82
2022/04/30 07:47:56;;;;;;;9.55;3.80;;;;;;;;;;5051352;28;20037;-82
2022/04/30 07:50:23;;;;;;;9.23;3.80;;;;;;;;;;5041557;28;20108;-83
2022/04/30 07:52:49;;;;;;;6.03;3.78;;;16.20;99.90;;;;;;5052955;28;20115;-81
2022/04/30 07:55:15;;;;;;;9.65;3.63;;;;;;;;;;5053760;28;20070;-83
2022/04/30 07:57:41;;;;;;;10.65;5.10;;;;;;;;;;5047287;28;20093;-83
2022/04/30 08:00:07;;;;;;;6.75;4.25;;;;;;;;;;5047663;28;20114;-84
2022/04/30 08:02:33;;;;;;;5.45;3.22;;;;;;;;;;5046263;28;20044;-83
2022/04/30 08:05:01;;;;;;;8.23;3.70;;;;;;;;;;5049178;28;20036;-82
2022/04/30 08:07:27;;;;;;;8.07;4.05;;;;;;;;;;5046471;28;20483;-84
2022/04/30 08:09:53;;;;;;;9.98;3.55;;;;;;;;;;5049005;28;20024;-82
2022/04/30 08:12:19;;;;;;;9.68;4.03;;;;;;;;;;5050030;28;20024;-83
2022/04/30 08:14:45;;;;;;;7.72;3.97;;;;;;;;;;5054948;28;20021;-81
2022/04/30 08:17:13;;;;;;;9.40;4.15;;;;;;;;;;5038956;28;20155;-83
2022/04/30 08:19:39;;;;;;;6.63;4.22;;;;;;;;;;5040383;28;20029;-83
2022/04/30 08:22:05;;;;;;;8.40;4.30;;;;;;;;;;5052905;28;20035;-83
2022/04/30 08:24:31;;;;;;;7.30;4.18;;;;;;;;;;5047247;28;20029;-83
2022/04/30 08:26:57;;;;;;;10.80;4.07;;;;;;;;;;5048608;28;20021;-81
2022/04/30 08:29:23;;;;;;;12.13;3.75;;;;;;;;;;5053979;28;20029;-83
2022/04/30 08:31:49;;;;;;;6.93;3.78;;;;;;;;;;5053193;28;20519;-82
2022/04/30 08:34:15;;;;;;;8.88;4.00;;;;;;;;;;5045699;28;20118;-82
2022/04/30 08:36:41;;;;;;;9.52;4.20;;;;;;;;;;5057467;28;20049;-82
2022/04/30 08:39:07;;;;;;;9.95;4.45;;;;;;;;;;5055039;28;20075;-82
2022/04/30 08:41:33;;;;;;;9.60;3.75;;;;;;;;;;5055353;28;20480;-83
2022/04/30 08:43:59;;;;;;;9.70;4.32;;;;;;;;;;5046864;28;20059;-83
2022/04/30 08:46:25;;;;;;;10.65;4.20;;;;;;;;;;5051440;28;20033;-83
2022/04/30 08:48:51;;;;;;;8.27;4.25;;;;;;;;;;5041171;28;20550;-82
2022/04/30 08:51:18;;;;;;;5.20;3.38;;;;;;;;;;5053129;28;20039;-82
2022/04/30 08:53:44;;;;;;;12.20;5.43;;;;;;;;;;5047509;28;20048;-83
2022/04/30 08:56:10;;;;;;;7.25;4.07;;;20.10;94.70;;;;;;5042809;28;20025;-82
2022/04/30 08:58:36;;;;;;;7.25;3.92;;;;;;;;;;5037337;28;20061;-83
2022/04/30 09:01:03;;;;;;;9.48;3.72;;;;;;;;;;5046602;28;20032;-82
2022/04/30 09:03:33;;;;;;;6.88;3.28;;;;;;;;;;5047205;28;20028;-83
2022/04/30 09:06:00;;;;;;;8.32;3.90;;;;;;;;;;5048543;28;20028;-82
2022/04/30 09:08:26;;;;;;;10.18;3.83;;;;;;;;;;5040463;28;20075;-82
2022/04/30 09:10:52;;;;;;;8.18;4.40;;;;;;;;;;5049048;28;20025;-82
2022/04/30 09:13:18;;;;;;;7.40;3.50;;;;;;;;;;5048388;28;20096;-82
2022/04/30 09:15:45;;;;;;;8.18;4.88;;;21.10;86.40;;;;;;5046877;28;20394;-82
2022/04/30 09:18:13;;;;;;;9.60;4.38;;;20.80;87.40;;;;;;5053026;28;20454;-82
2022/04/30 09:20:46;;;;;;;4.15;2.95;;;;;;;;;;5050001;28;20025;-82
2022/04/30 09:23:23;;;;;;;6.55;3.75;;;20.20;91.60;;;;;;5049939;28;20504;-81
2022/04/30 09:25:53;;;;;;;10.98;3.85;;;;;;;;;;5046361;28;20104;-83
2022/04/30 09:28:33;;;;;;;7.65;4.57;;;;;;;;;;5050812;28;20041;-82
2022/04/30 09:31:12;;;;;;;6.05;3.70;;;;;;;;;;5045602;28;20055;-83
2022/04/30 09:33:39;;;;;;;8.10;3.08;;;;;;;;;;5041723;28;20029;-82
2022/04/30 09:38:51;;;;;;;6.45;3.72;;;;;;;;;;5043634;28;20079;-81
2022/04/30 09:41:24;;;;;;;5.90;3.38;;;;;;;;;;5044204;28;20027;-82
2022/04/30 09:44:07;;;;;;;8.73;4.00;;;;;;;;;;5051178;28;20029;-81
2022/04/30 09:46:36;;;;;;;7.30;3.58;;;;;;;;;;5050403;28;20037;-80
2022/04/30 09:54:37;;;;;;;6.57;3.67;;;;;;;;;;5046888;28;20059;-81
2022/04/30 09:57:10;;;;;;;9.02;4.25;;;;;;;;;;5050954;28;20049;-81
2022/04/30 09:59:36;;;;;;;5.75;3.53;;;;;;;;;;5045195;28;20033;-81
2022/04/30 10:02:06;;;;;;;5.97;3.70;;;;;;;;;;5044598;28;20041;-81
2022/04/30 10:04:33;;;;;;;7.28;4.10;;;;;;;;;;5044920;28;20049;-81
2022/04/30 10:07:00;;;;;;;4.63;2.55;;;;;;;;;;5048718;28;20025;-81
2022/04/30 10:09:50;;;;;;;8.93;4.25;;;;;;;;;;5048232;28;20071;-81
2022/04/30 10:12:35;;;;;;;6.78;3.80;;;;;;;;;;5044951;28;20047;-82
2022/04/30 10:15:20;;;;;;;8.20;4.30;;;;;;;;;;5052181;28;20116;-83
2022/04/30 10:17:49;;;;;;;6.20;3.70;;;;;;;;;;5046539;28;20121;-82
2022/04/30 10:20:23;;;;;;;6.55;3.85;;;;;;;;;;5044630;28;20033;-82
2022/04/30 10:22:59;;;;;;;12.23;4.65;;;;;;;;;;5051004;28;20047;-81
2022/04/30 10:25:33;;;;;;;7.28;3.78;;;;;;;;;;5047176;28;20032;-84
2022/04/30 10:27:59;;;;;;;8.35;4.65;;;;;;;;;;5049628;28;20104;-84
2022/04/30 10:30:28;;;;;;;8.60;5.43;;;;;;;;;;5039651;28;20052;-82
2022/04/30 10:32:58;;;;;;;11.75;4.78;;;17.50;91.90;;;;;;5038942;28;20029;-84
2022/04/30 10:35:28;;;;;;;6.88;3.38;;;;;;;;;;5050125;28;20044;-85
2022/04/30 10:38:05;;;;;;;11.93;4.60;;;;;;;;;;5050896;28;20036;-84
2022/04/30 10:40:57;;;;;;;9.05;4.80;;;;;;;;;;5051224;28;20039;-84
2022/04/30 10:43:34;;;;;;;9.38;4.32;;;;;;;;;;5049566;28;20045;-84
2022/04/30 10:46:01;;;;;;;7.25;3.70;;;;;;;;;;5050312;28;20112;-85
2022/04/30 10:48:27;;;;;;;7.55;4.82;;;;;;;;;;5040392;28;20123;-85
2022/04/30 10:51:02;;;;;;;11.30;4.25;;;;;;;;;;5033144;28;20573;-84
2022/04/30 10:53:28;;;;;;;7.13;3.45;;;;;;;;;;5045801;28;20032;-84
2022/04/30 10:55:55;;;;;;;8.75;5.90;;;;;;;;;;5053428;28;20073;-84
2022/04/30 10:58:24;;;;;;;6.30;4.28;;;;;;;;;;5049826;28;20374;-85
2022/04/30 11:00:51;;;;;;;5.18;3.72;;;;;;;;;;5046329;28;20416;-84
2022/04/30 11:03:17;;;;;;;8.65;5.07;;;;;;;;;;5047723;28;20036;-84
2022/04/30 11:05:43;;;;;;;9.43;4.07;;;;;;;;;;5051438;28;20422;-85
2022/04/30 11:08:10;;;;;;;9.25;4.00;;;;;;;;;;5047388;28;20029;-85
2022/04/30 11:10:36;;;;;;;8.07;3.80;;;;;;;;;;5045410;28;21949;-84
2022/04/30 11:13:05;;;;;;;6.13;3.50;;;;;;;;;;5043663;28;20039;-85
2022/04/30 11:15:32;;;;;;;6.10;3.17;;;;;;;;;;5053433;28;20393;-83
2022/04/30 11:17:59;;;;;;;14.48;5.32;;;;;;;;;;5048074;28;20227;-84
2022/04/30 11:20:25;;;;;;;11.55;6.32;;;19.40;89.40;;;;;;5051105;28;20036;-84
2022/04/30 11:22:55;;;;;;;29.75;12.18;;;;;;;;;;5048264;28;20123;-83
2022/04/30 11:25:22;;;;;;;21.10;9.73;;;;;;;;;;5052711;28;20040;-82
2022/04/30 11:27:48;;;;;;;8.30;4.20;;;;;;;;;;5046674;28;20021;-85
2022/04/30 11:30:14;;;;;;;9.73;4.82;;;;;;;;;;5054268;28;20109;-83
2022/04/30 11:32:40;;;;;;;12.30;5.25;;;;;;;;;;5026453;28;20029;-84
2022/04/30 11:35:06;;;;;;;8.95;4.35;;;;;;;;;;5056491;28;20076;-84
2022/04/30 11:37:38;;;;;;;5.90;3.92;;;;;;;;;;5056162;28;20489;-83
2022/04/30 11:40:05;;;;;;;7.15;3.88;;;;;;;;;;5052439;28;20026;-82
2022/04/30 11:42:31;;;;;;;16.17;5.18;;;;;;;;;;5053637;28;20439;-83
2022/04/30 11:44:57;;;;;;;7.20;3.35;;;;;;;;;;5051688;28;20033;-84
2022/04/30 11:47:23;;;;;;;7.47;4.78;;;;;;;;;;5044731;28;20086;-82
2022/04/30 11:49:49;;;;;;;10.30;3.75;;;;;;;;;;5044929;28;20025;-81
2022/04/30 11:52:15;;;;;;;6.72;3.70;;;;;;;;;;5044562;28;20412;-84
2022/04/30 11:54:42;;;;;;;9.70;3.95;;;;;;;;;;5046100;28;20064;-81
2022/04/30 11:57:09;;;;;;;35.53;13.23;;;;;;;;;;5042560;28;20033;-82
2022/04/30 11:59:39;;;;;;;12.55;6.60;;;;;;;;;;5044060;28;20087;-85
2022/04/30 12:02:14;;;;;;;10.18;5.07;;;;;;;;;;5055277;28;20025;-83
2022/04/30 12:04:41;;;;;;;11.73;4.88;;;;;;;;;;5048183;28;20024;-84
2022/04/30 12:07:07;;;;;;;16.25;6.90;;;;;;;;;;5059812;28;20036;-83
2022/04/30 12:09:38;;;;;;;21.05;8.35;;;18.10;91.80;;;;;;5055387;28;20178;-83
2022/04/30 12:12:16;;;;;;;13.82;4.95;;;;;;;;;;5057674;28;20027;-83
2022/04/30 12:14:49;;;;;;;10.18;4.38;;;;;;;;;;5059986;28;20370;-83
2022/04/30 12:17:14;;;;;;;;;;;;;;;;;;5057350;28;20041;-82
2022/04/30 12:25:16;;;;;;;8.48;4.20;;;19.50;91.80;;;;;;5052181;28;20439;-83
2022/04/30 12:27:43;;;;;;;8.43;4.55;;;;;;;;;;5049980;28;20021;-82
2022/04/30 12:30:14;;;;;;;8.65;4.45;;;;;;;;;;5052211;28;20059;-80
2022/04/30 12:32:51;;;;;;;6.03;4.00;;;;;;;;;;5049581;28;20031;-83
2022/04/30 12:35:27;;;;;;;8.50;3.80;;;;;;;;;;5057666;28;20059;-83
2022/04/30 12:38:06;;;;;;;10.52;3.85;;;;;;;;;;5050785;28;20041;-83
2022/04/30 12:40:33;;;;;;;9.05;4.13;;;;;;;;;;5052454;28;20040;-82
2022/04/30 12:42:59;;;;;;;6.22;3.90;;;;;;;;;;5051399;28;20033;-84
2022/04/30 12:45:25;;;;;;;9.00;4.43;;;;;;;;;;5046157;28;20619;-81
2022/04/30 12:47:51;;;;;;;10.00;5.13;;;;;;;;;;5049567;28;20263;-82
2022/04/30 12:50:17;;;;;;;6.78;4.38;;;;;;;;;;5050122;28;20023;-82
2022/04/30 12:52:43;;;;;;;10.68;4.63;;;;;;;;;;5053674;28;20063;-82
2022/04/30 12:55:14;;;;;;;6.75;3.95;;;;;;;;;;5050644;28;20044;-85
2022/04/30 12:57:40;;;;;;;6.63;4.40;;;;;;;;;;5045509;28;20037;-83
2022/04/30 13:00:10;;;;;;;7.50;4.63;;;;;;;;;;5048628;28;20029;-85
2022/04/30 13:02:37;;;;;;;8.40;5.18;;;;;;;;;;5042892;28;20029;-84
2022/04/30 13:05:03;;;;;;;10.30;5.13;;;;;;;;;;5050368;28;20488;-84
2022/04/30 13:07:29;;;;;;;10.13;6.00;;;;;;;;;;5048267;28;20056;-83
2022/04/30 13:15:27;;;;;;;7.13;4.43;;;;;;;;;;5046112;28;20715;-83
2022/04/30 13:17:55;;;;;;;8.07;4.53;;;;;;;;;;5044922;28;20071;-84
2022/04/30 13:20:22;;;;;;;9.18;5.15;;;;;;;;;;5050979;28;20029;-83
2022/04/30 13:22:49;;;;;;;8.95;5.30;;;;;;;;;;5052716;28;20040;-82
2022/04/30 13:25:16;;;;;;;14.52;6.60;;;;;;;;;;5052504;28;20047;-82
2022/04/30 13:27:42;;;;;;;10.35;5.30;;;16.00;99.90;;;;;;5055237;28;20083;-82
2022/04/30 13:30:09;;;;;;;9.90;6.00;;;;;;;;;;5054340;28;20639;-80
2022/04/30 13:32:35;;;;;;;10.05;4.63;;;;;;;;;;5050284;28;20053;-82
2022/04/30 13:35:00;;;;;;;8.55;4.25;;;;;;;;;;5058816;28;20033;-82
2022/04/30 13:37:27;;;;;;;12.10;5.10;;;;;;;;;;5056470;28;20032;-83
2022/04/30 13:39:53;;;;;;;10.43;5.22;;;;;;;;;;5053751;28;20028;-84
2022/04/30 13:42:19;;;;;;;13.60;5.07;;;;;;;;;;5052509;28;20045;-83
2022/04/30 13:44:45;;;;;;;11.07;5.90;;;;;;;;;;5049877;28;20477;-85
2022/04/30 13:47:11;;;;;;;12.85;7.38;;;;;;;;;;5047137;28;20428;-82
2022/04/30 13:49:38;;;;;;;10.32;5.68;;;;;;;;;;5056502;28;20453;-84
2022/04/30 13:52:05;;;;;;;12.75;6.22;;;;;;;;;;5058595;28;20025;-82
2022/04/30 13:54:30;;;;;;;8.13;3.80;;;14.00;99.90;;;;;;5052871;28;20483;-83
2022/04/30 13:56:56;;;;;;;5.15;2.75;;;;;;;;;;5056380;28;20090;-82
2022/04/30 13:59:24;;;;;;;4.93;2.45;;;;;;;;;;5057074;28;20033;-83
2022/04/30 14:01:51;;;;;;;4.00;1.88;;;;;;;;;;5053536;28;20026;-84
2022/04/30 14:04:17;;;;;;;5.53;2.78;;;;;;;;;;5054963;28;20101;-83
2022/04/30 14:06:43;;;;;;;9.30;3.38;;;;;;;;;;5053676;28;20512;-83
2022/04/30 14:09:09;;;;;;;11.85;3.95;;;;;;;;;;5052095;28;20024;-82
2022/04/30 14:11:35;;;;;;;10.32;4.60;;;;;;;;;;5050833;28;20089;-80
2022/04/30 14:16:46;;;;;;;12.13;4.05;;;;;;;;;;5048168;28;20175;-81
2022/04/30 14:19:12;;;;;;;;;;;;;;;;;;5050642;28;20033;-79
2022/04/30 14:21:38;;;;;;;6.53;3.75;;;;;;;;;;5053314;28;20333;-80
2022/04/30 14:24:04;;;;;;;10.07;5.30;;;;;;;;;;5047598;28;20033;-80
2022/04/30 14:26:31;;;;;;;8.70;5.25;;;;;;;;;;5046500;28;20020;-79
2022/04/30 14:28:57;;;;;;;9.57;5.30;;;;;;;;;;5054266;28;20048;-79
2022/04/30 14:31:23;;;;;;;15.18;5.30;;;;;;;;;;5051863;28;20029;-79
2022/04/30 14:33:49;;;;;;;11.02;5.68;;;;;;;;;;5059114;28;20025;-79
2022/04/30 14:36:15;;;;;;;13.55;5.72;;;;;;;;;;5057258;28;20033;-79
2022/04/30 14:38:41;;;;;;;13.32;5.15;;;;;;;;;;5046818;28;20037;-78
2022/04/30 14:41:07;;;;;;;13.65;6.13;;;;;;;;;;5056769;28;20102;-79
2022/04/30 14:43:34;;;;;;;12.15;6.45;;;;;;;;;;5053828;28;20101;-79
2022/04/30 14:46:04;;;;;;;10.73;5.22;;;;;;;;;;5029995;28;20037;-79
2022/04/30 14:48:30;;;;;;;12.32;5.65;;;;;;;;;;5056042;28;20017;-79
2022/04/30 14:50:56;;;;;;;16.92;5.68;;;;;;;;;;5053815;28;20040;-78
2022/04/30 14:53:22;;;;;;;13.50;6.60;;;;;;;;;;5037625;28;20029;-79
2022/04/30 14:55:49;;;;;;;16.70;8.13;;;;;;;;;;5031448;28;20021;-79
2022/04/30 14:58:15;;;;;;;9.40;5.82;;;;;;;;;;5026672;28;20951;-80
2022/04/30 15:00:44;;;;;;;19.45;5.90;;;;;;;;;;5035454;28;20110;-80
2022/04/30 15:03:10;;;;;;;10.80;5.18;;;;;;;;;;5056084;28;20381;-80
2022/04/30 15:05:36;;;;;;;17.50;6.18;;;;;;;;;;5050868;28;22007;-79
2022/04/30 15:08:02;;;;;;;12.07;5.30;;;;;;;;;;5054342;28;20071;-80
2022/04/30 15:10:28;;;;;;;9.80;5.05;;;;;;;;;;5048186;28;20105;-79
2022/04/30 15:12:54;;;;;;;11.02;5.38;;;;;;;;;;5053135;28;20056;-80
2022/04/30 15:15:20;;;;;;;9.90;5.53;;;;;;;;;;5045545;28;20032;-79
2022/04/30 15:17:46;;;;;;;17.08;5.78;;;;;;;;;;5046251;28;20047;-80
2022/04/30 15:20:12;;;;;;;9.65;5.43;;;;;;;;;;5048882;28;20045;-78
2022/04/30 15:22:38;;;;;;;12.32;6.60;;;;;;;;;;5052831;28;20087;-79
2022/04/30 15:25:05;;;;;;;9.40;5.95;;;;;;;;;;5052895;28;20625;-79